Time;durP1;ratioP1;P1;durP2;ratioP2;P2;SDS_P1;SDS_P2;PMS_P1;PMS_P2;Temp;Humidity;BMP_temperature;BMP_pressure;BME280_temperature;BME280_humidity;BME280_pressure;Samples;Min_cycle;Max_cycle;Signal;HPM_P1;HPM_P2
2024/01/19 00:01:20;;;;;;;0.00;0.00;;;;;;;0.77;97.23;101525.44;5057966;27;99269;-27
2024/01/19 00:03:46;;;;;;;0.32;0.28;;;;;;;0.74;97.51;101514.78;5057636;27;96658;-28
2024/01/19 00:06:11;;;;;;;0.00;0.00;;;;;;;0.75;97.22;101530.78;5058831;27;96737;-28
2024/01/19 00:08:36;;;;;;;0.17;0.15;;;;;;;0.75;97.49;101527.25;5057972;27;106781;-27
2024/01/19 00:11:02;;;;;;;0.13;0.13;;;;;;;0.69;97.10;101528.19;5058003;27;97920;-27
2024/01/19 00:13:27;;;;;;;0.00;0.00;;;;;;;0.72;97.78;101525.50;5058670;27;96520;-27
2024/01/19 00:15:55;;;;;;;0.00;0.00;;;;;;;0.75;97.97;101533.44;5058908;27;96774;-28
2024/01/19 00:18:21;;;;;;;0.00;0.00;;;;;;;0.69;97.63;101520.19;5057561;27;97996;-28
2024/01/19 00:20:46;;;;;;;0.00;0.00;;;;;;;0.64;97.84;101527.31;5056446;27;100941;-29
2024/01/19 00:23:12;;;;;;;0.00;0.00;;;;;;;0.63;98.16;101522.91;5058037;27;96453;-27
2024/01/19 00:25:38;;;;;;;0.00;0.00;;;;;;;0.66;98.24;101543.31;5058200;27;96805;-27
2024/01/19 00:28:04;;;;;;;0.00;0.00;;;;;;;0.65;97.49;101539.78;5057710;27;99612;-27
2024/01/19 00:30:30;;;;;;;0.00;0.00;;;;;;;0.66;97.88;101548.66;5057523;27;99099;-27
2024/01/19 00:32:55;;;;;;;0.05;0.05;;;;;;;0.66;97.69;101541.53;5057863;27;96765;-27
2024/01/19 00:35:21;;;;;;;0.00;0.00;;;;;;;0.58;97.91;101538.06;5057925;27;96809;-28
2024/01/19 00:37:46;;;;;;;0.00;0.00;;;;;;;0.55;98.12;101540.75;5057520;27;99064;-28
2024/01/19 00:40:11;;;;;;;0.00;0.00;;;;;;;0.54;98.20;101539.88;5057814;27;104653;-27
2024/01/19 00:42:41;;;;;;;0.22;0.17;;;;;;;0.58;97.88;101546.94;5057960;27;96480;-28
2024/01/19 00:45:07;;;;;;;0.00;0.00;;;;;;;0.59;98.49;101551.34;5056498;27;96851;-28
2024/01/19 00:47:34;;;;;;;0.00;0.00;;;;;;;0.57;98.17;101549.59;5055405;27;100121;-28
2024/01/19 00:50:00;;;;;;;0.00;0.00;;;;;;;0.52;97.40;101546.09;5056048;27;100765;-27
2024/01/19 00:52:26;;;;;;;0.00;0.00;;;;;;;0.50;97.04;101550.56;5057601;27;96542;-27
2024/01/19 00:54:51;;;;;;;0.00;0.00;;;;;;;0.55;97.71;101560.31;5056844;27;96920;-27
2024/01/19 00:57:16;;;;;;;0.00;0.00;;;;;;;0.52;97.75;101557.66;5057672;27;97513;-27
2024/01/19 00:59:41;;;;;;;0.00;0.00;;;;;;;0.48;97.83;101557.69;5057410;27;97380;-28
2024/01/19 01:02:07;;;;;;;0.00;0.00;;;;;;;0.45;97.63;101560.38;5057422;27;96816;-27
2024/01/19 01:04:32;;;;;;;0.00;0.00;;;;;;;0.50;97.59;101559.47;5058027;27;96799;-29
2024/01/19 01:06:57;;;;;;;0.00;0.00;;;;;;;0.49;97.15;101551.47;5057470;27;97827;-28
2024/01/19 01:09:23;;;;;;;0.68;0.63;;;;;;;0.46;96.92;101554.16;5056967;27;108720;-27
2024/01/19 01:11:48;;;;;;;0.00;0.00;;;;;;;0.40;96.79;101545.31;5057308;27;96468;-27
2024/01/19 01:14:15;;;;;;;0.00;0.00;;;;;;;0.41;96.82;101554.22;5057915;27;96803;-27
2024/01/19 01:16:40;;;;;;;0.03;0.03;;;;;;;0.39;96.67;101558.66;5058617;27;99456;-27
2024/01/19 01:19:06;;;;;;;0.00;0.00;;;;;;;0.39;96.35;101571.97;5060978;27;97334;-28
2024/01/19 01:21:31;;;;;;;0.00;0.00;;;;;;;0.37;96.37;101574.66;5061177;27;96487;-27
2024/01/19 01:23:56;;;;;;;0.00;0.00;;;;;;;0.32;96.42;101571.13;5061299;27;96806;-28
2024/01/19 01:26:22;;;;;;;0.17;0.13;;;;;;;0.29;96.44;101579.16;5060889;27;101469;-27
2024/01/19 01:28:47;;;;;;;0.00;0.00;;;;;;;0.24;96.84;101572.09;5060875;27;99249;-28
2024/01/19 01:31:12;;;;;;;0.00;0.00;;;;;;;0.25;96.89;101580.06;5060794;27;96534;-27
2024/01/19 01:33:38;;;;;;;0.13;0.05;;;;;;;0.24;96.89;101588.97;5061413;27;96776;-29
2024/01/19 01:36:03;;;;;;;0.30;0.30;;;;;;;0.24;96.70;101590.72;5059828;27;99327;-27
2024/01/19 01:38:28;;;;;;;0.00;0.00;;;;;;;0.20;96.70;101576.56;5060327;27;98993;-27
2024/01/19 01:40:54;;;;;;;0.00;0.00;;;;;;;0.13;96.90;101580.16;5060768;27;96444;-27
2024/01/19 01:43:24;;;;;;;8.25;0.22;;;;;;;0.13;96.82;101590.81;5060901;27;96723;-27
2024/01/19 01:45:50;;;;;;;0.00;0.00;;;;;;;0.08;96.64;101584.66;5058660;27;100970;-28
2024/01/19 01:48:17;;;;;;;0.00;0.00;;;;;;;0.08;97.16;101592.63;5058768;27;100688;-29
2024/01/19 01:50:42;;;;;;;0.00;0.00;;;;;;;0.10;96.61;101598.84;5059360;27;97198;-28
2024/01/19 01:53:08;;;;;;;0.22;0.05;;;;;;;0.10;96.52;101604.16;5061230;27;96717;-28
2024/01/19 01:55:33;;;;;;;0.32;0.30;;;;;;;0.10;96.78;101605.03;5058085;27;100679;-27
2024/01/19 01:57:59;;;;;;;0.03;0.03;;;;;;;0.02;96.83;101604.19;5059974;27;98756;-27
2024/01/19 02:00:25;;;;;;;0.05;0.05;;;;;;;0.01;96.63;101604.22;5059963;27;96654;-27
2024/01/19 02:02:51;;;;;;;0.00;0.00;;;;;;;-0.01;96.62;101597.09;5059148;27;96915;-27
2024/01/19 02:05:16;;;;;;;0.00;0.00;;;;;;;0.04;96.27;101590.88;5059899;27;99243;-27
2024/01/19 02:07:42;;;;;;;0.00;0.00;;;;;;;0.06;96.40;101594.41;5059943;27;97810;-27
2024/01/19 02:10:07;;;;;;;1.85;1.10;;;;;;;0.07;96.14;101609.50;5060323;27;96616;-27
2024/01/19 02:12:33;;;;;;;0.05;0.05;;;;;;;0.07;95.93;101602.41;5060540;27;96738;-27
2024/01/19 02:14:59;;;;;;;0.05;0.05;;;;;;;0.19;95.46;101618.31;5057920;27;100904;-27
2024/01/19 02:17:26;;;;;;;0.13;0.13;;;;;;;0.27;95.51;101628.03;5060271;27;97214;-27
2024/01/19 02:19:51;;;;;;;0.10;0.10;;;;;;;0.31;95.48;101633.34;5058859;27;96556;-27
2024/01/19 02:22:17;;;;;;;0.00;0.00;;;;;;;0.29;95.24;101629.78;5060292;27;96729;-27
2024/01/19 02:24:43;;;;;;;0.10;0.10;;;;;;;0.33;95.18;101639.50;5059327;27;97976;-27
2024/01/19 02:27:08;;;;;;;0.65;0.52;;;;;;;0.36;95.11;101635.97;5057840;27;100891;-27
2024/01/19 02:29:34;;;;;;;0.00;0.00;;;;;;;0.36;95.04;101642.19;5060152;27;96593;-28
2024/01/19 02:31:59;;;;;;;0.47;0.32;;;;;;;0.31;95.11;101635.09;5059851;27;96804;-27
2024/01/19 02:34:24;;;;;;;0.00;0.00;;;;;;;0.45;95.02;101640.34;5059597;27;97902;-27
2024/01/19 02:36:50;;;;;;;0.28;0.28;;;;;;;0.52;94.77;101644.72;5059560;27;101092;-28
2024/01/19 02:39:15;;;;;;;0.77;0.15;;;;;;;0.42;94.53;101634.13;5060186;27;96603;-28
2024/01/19 02:41:41;;;;;;;0.52;0.52;;;;;;;0.52;94.57;101642.06;5060331;27;96824;-27
2024/01/19 02:44:06;;;;;;;0.30;0.30;;;;;;;0.53;94.08;101646.50;5059451;27;97810;-28
2024/01/19 02:46:32;;;;;;;0.10;0.10;;;;;;;0.47;94.54;101654.53;5059369;27;97878;-27
2024/01/19 02:48:57;;;;;;;0.50;0.47;;;;;;;0.53;94.44;101654.50;5059428;27;96511;-27
2024/01/19 02:51:23;;;;;;;0.73;0.43;;;;;;;0.50;94.13;101643.84;5059768;27;96760;-27
2024/01/19 02:53:48;;;;;;;0.03;0.03;;;;;;;0.49;94.12;101650.97;5058154;27;98924;-27
2024/01/19 02:56:13;;;;;;;0.00;0.00;;;;;;;0.50;94.17;101654.50;5057605;27;100856;-28
2024/01/19 02:58:39;;;;;;;0.43;0.32;;;;;;;0.56;93.76;101662.47;5059865;27;96437;-27
2024/01/19 03:01:05;;;;;;;0.10;0.10;;;;;;;0.54;93.85;101658.94;5059096;27;96831;-28
2024/01/19 03:03:31;;;;;;;0.90;0.60;;;;;;;0.48;93.97;101656.28;5057589;27;98895;-27
2024/01/19 03:05:56;;;;;;;0.00;0.00;;;;;;;0.48;94.14;101658.97;5059227;27;100238;-27
2024/01/19 03:08:22;;;;;;;0.68;0.30;;;;;;;0.44;94.20;101665.22;5059359;27;96510;-27
2024/01/19 03:10:47;;;;;;;0.28;0.20;;;;;;;0.39;94.56;101658.13;5058196;27;96894;-27
2024/01/19 03:13:12;;;;;;;0.63;0.32;;;;;;;0.39;94.20;101668.78;5058566;27;97847;-32
2024/01/19 03:15:38;;;;;;;0.00;0.00;;;;;;;0.38;94.30;101672.38;5059117;27;97378;-27
2024/01/19 03:18:03;;;;;;;0.47;0.47;;;;;;;0.46;94.51;101684.75;5059550;27;96504;-28
2024/01/19 03:20:29;;;;;;;0.10;0.10;;;;;;;0.47;94.14;101681.19;5059217;27;96815;-29
2024/01/19 03:22:54;;;;;;;0.30;0.30;;;;;;;0.50;94.38;101689.16;5058939;27;97371;-28
2024/01/19 03:25:19;;;;;;;0.30;0.30;;;;;;;0.47;94.24;101671.41;5058582;27;99324;-28
2024/01/19 03:27:45;;;;;;;0.22;0.17;;;;;;;0.40;94.68;101681.22;5059042;27;96545;-27
2024/01/19 03:30:11;;;;;;;0.52;0.25;;;;;;;0.48;94.36;101678.53;5059049;27;96922;-28
2024/01/19 03:32:36;;;;;;;0.70;0.28;;;;;;;0.52;94.30;101682.91;5057161;27;100844;-28
2024/01/19 03:35:02;;;;;;;2.03;1.40;;;;;;;0.43;94.06;101683.00;5058341;27;99194;-27
2024/01/19 03:37:28;;;;;;;0.03;0.03;;;;;;;0.54;94.47;101681.13;5058574;27;97422;-27
2024/01/19 03:39:53;;;;;;;0.30;0.30;;;;;;;0.54;94.21;101682.91;5057758;27;96737;-28
2024/01/19 03:42:18;;;;;;;0.00;0.00;;;;;;;0.59;93.82;101686.44;5058620;27;98167;-27
2024/01/19 03:44:43;;;;;;;0.00;0.00;;;;;;;0.37;94.42;101677.69;5058177;27;98822;-27
2024/01/19 03:47:09;;;;;;;0.57;0.50;;;;;;;0.45;94.54;101685.63;5059216;27;96627;-27
2024/01/19 03:49:34;;;;;;;0.10;0.10;;;;;;;0.40;94.76;101691.88;5058775;27;97759;-27
2024/01/19 03:52:05;;;;;;;0.32;0.32;;;;;;;0.28;95.38;101683.06;5057773;27;99651;-28
2024/01/19 03:54:34;;;;;;;0.10;0.10;;;;;;;0.33;95.29;101690.13;5057766;27;99503;-27
2024/01/19 03:57:02;;;;;;;0.00;0.00;;;;;;;0.49;95.09;101682.94;5058608;27;96566;-29
2024/01/19 03:59:28;;;;;;;0.98;0.20;;;;;;;0.40;95.05;101686.53;5057237;27;96909;-27
2024/01/19 04:01:54;;;;;;;0.15;0.15;;;;;;;0.30;95.87;101698.16;5056158;27;101081;-27
2024/01/19 04:04:20;;;;;;;0.68;0.30;;;;;;;0.29;96.01;101701.72;5056817;27;100852;-27
2024/01/19 04:06:46;;;;;;;0.00;0.00;;;;;;;0.33;96.71;101702.59;5058797;27;96460;-27
2024/01/19 04:09:11;;;;;;;0.45;0.22;;;;;;;0.31;96.62;101696.38;5058499;27;96793;-27
2024/01/19 04:11:37;;;;;;;0.00;0.00;;;;;;;0.29;96.20;101699.06;5058095;27;97733;-27
2024/01/19 04:14:03;;;;;;;0.45;0.40;;;;;;;0.31;96.45;101713.28;5056461;27;101236;-27
2024/01/19 04:16:28;;;;;;;0.00;0.00;;;;;;;0.30;96.93;101703.47;5056898;27;96654;-28
2024/01/19 04:18:54;;;;;;;0.00;0.00;;;;;;;0.37;96.65;101712.34;5059195;27;96733;-27
2024/01/19 04:21:19;;;;;;;0.08;0.08;;;;;;;0.34;96.89;101718.56;5057660;27;99262;-28
2024/01/19 04:23:47;;;;;;;0.10;0.10;;;;;;;0.38;96.63;101712.34;5057868;27;97452;-28
2024/01/19 04:26:12;;;;;;;0.43;0.43;;;;;;;0.35;96.42;101717.66;5056351;27;96890;-27
2024/01/19 04:28:39;;;;;;;2.30;1.20;;;;;;;0.38;96.52;101720.34;5058084;27;96790;-28
2024/01/19 04:31:05;;;;;;;0.43;0.40;;;;;;;0.31;96.34;101709.69;5056268;27;101037;-27
2024/01/19 04:33:31;;;;;;;0.25;0.25;;;;;;;0.32;96.36;101699.03;5056272;27;100738;-27
2024/01/19 04:35:56;;;;;;;0.20;0.17;;;;;;;0.40;96.56;101713.19;5058082;27;96613;-27
2024/01/19 04:38:21;;;;;;;0.17;0.17;;;;;;;0.36;96.50;101727.44;5057923;27;96853;-27
2024/01/19 04:40:47;;;;;;;0.32;0.32;;;;;;;0.42;96.60;101727.41;5057319;27;99247;-27
2024/01/19 04:43:13;;;;;;;0.55;0.30;;;;;;;0.48;96.78;101738.91;5058029;27;97911;-27
2024/01/19 04:45:38;;;;;;;0.22;0.22;;;;;;;0.68;96.45;101757.47;5058086;27;96460;-28
2024/01/19 04:48:03;;;;;;;0.00;0.00;;;;;;;0.67;96.50;101785.00;5057811;27;96566;-27
2024/01/19 04:50:29;;;;;;;1.13;0.70;;;;;;;0.70;97.45;101787.69;5056858;27;97456;-27
2024/01/19 04:52:54;;;;;;;0.13;0.13;;;;;;;0.70;97.73;101803.69;5055836;27;99036;-27
2024/01/19 04:55:19;;;;;;;0.80;0.17;;;;;;;0.73;99.12;101807.19;5056920;27;96817;-27
2024/01/19 04:57:45;;;;;;;0.03;0.03;;;;;;;0.75;100.00;101800.09;5057648;27;96810;-29
2024/01/19 05:00:12;;;;;;;0.00;0.00;;;;;;;0.75;100.00;101773.41;5055735;27;100977;-27
2024/01/19 05:02:37;;;;;;;0.00;0.00;;;;;;;0.84;100.00;101792.03;5055839;27;102016;-27
2024/01/19 05:05:03;;;;;;;0.00;0.00;;;;;;;0.74;100.00;101803.66;5058224;27;97249;-27
2024/01/19 05:07:28;;;;;;;0.20;0.20;;;;;;;0.68;100.00;101800.13;5057972;27;96853;-27
2024/01/19 05:09:53;;;;;;;0.52;0.15;;;;;;;0.65;100.00;101797.50;5057008;27;99258;-28
2024/01/19 05:12:19;;;;;;;0.00;0.00;;;;;;;0.64;100.00;101788.59;5057457;27;97254;-27
2024/01/19 05:14:47;;;;;;;0.00;0.00;;;;;;;0.69;100.00;101797.47;5057089;27;96581;-27
2024/01/19 05:17:12;;;;;;;0.13;0.08;;;;;;;0.66;100.00;101804.59;5057401;27;96864;-27
2024/01/19 05:19:38;;;;;;;0.00;0.00;;;;;;;0.65;100.00;101803.69;5057124;27;98227;-28
2024/01/19 05:22:03;;;;;;;0.15;0.15;;;;;;;0.63;100.00;101808.16;5057314;27;97732;-27
2024/01/19 05:24:29;;;;;;;0.00;0.00;;;;;;;0.71;100.00;101808.97;5057442;27;96467;-27
2024/01/19 05:26:54;;;;;;;0.00;0.00;;;;;;;0.72;100.00;101809.91;5057421;27;98022;-28
2024/01/19 05:29:20;;;;;;;0.00;0.00;;;;;;;0.70;100.00;101817.88;5056887;27;99257;-27
2024/01/19 05:31:46;;;;;;;0.13;0.13;;;;;;;0.80;99.49;101830.28;5057435;27;97775;-28
2024/01/19 05:34:11;;;;;;;0.00;0.00;;;;;;;0.75;99.46;101837.41;5057808;27;96603;-27
2024/01/19 05:36:36;;;;;;;0.00;0.00;;;;;;;0.74;99.54;101846.31;5057132;27;96831;-28
2024/01/19 05:39:03;;;;;;;0.00;0.00;;;;;;;0.74;99.73;101835.66;5056096;27;99258;-27
2024/01/19 05:41:28;;;;;;;0.00;0.00;;;;;;;0.62;99.53;101838.34;5056880;27;98809;-27
2024/01/19 05:43:53;;;;;;;0.00;0.00;;;;;;;0.59;100.00;101847.25;5057347;27;96552;-28
2024/01/19 05:46:19;;;;;;;0.00;0.00;;;;;;;0.51;100.00;101849.06;5055781;27;96792;-28
2024/01/19 05:48:44;;;;;;;0.00;0.00;;;;;;;0.51;100.00;101850.88;5056609;27;99094;-27
2024/01/19 05:51:14;;;;;;;0.00;0.00;;;;;;;0.51;100.00;101861.53;5056883;27;97285;-27
2024/01/19 05:53:40;;;;;;;0.35;0.20;;;;;;;0.52;100.00;101865.94;5055479;27;96834;-27
2024/01/19 05:56:05;;;;;;;0.00;0.00;;;;;;;0.62;99.62;101859.69;5056913;27;96833;-27
2024/01/19 05:58:31;;;;;;;0.20;0.20;;;;;;;0.75;98.68;101864.06;5056525;27;98944;-27
2024/01/19 06:00:56;;;;;;;0.10;0.10;;;;;;;0.72;98.62;101880.09;5056429;27;99763;-27
2024/01/19 06:03:22;;;;;;;0.00;0.00;;;;;;;0.69;98.60;101882.78;5059715;27;96574;-27
2024/01/19 06:05:47;;;;;;;0.10;0.10;;;;;;;0.66;98.08;101887.22;5060342;27;96843;-28
2024/01/19 06:08:12;;;;;;;0.00;0.00;;;;;;;0.67;97.60;101897.91;5058719;27;99231;-28
2024/01/19 06:10:38;;;;;;;0.00;0.00;;;;;;;0.65;97.72;101894.34;5059801;27;97821;-27
2024/01/19 06:13:03;;;;;;;0.00;0.00;;;;;;;0.62;97.64;101891.66;5060777;27;96524;-27
2024/01/19 06:15:29;;;;;;;0.08;0.08;;;;;;;0.62;97.45;101895.25;5060150;27;96787;-27
2024/01/19 06:17:54;;;;;;;0.13;0.13;;;;;;;0.60;97.96;101904.16;5059736;27;98799;-28
2024/01/19 06:20:20;;;;;;;0.00;0.00;;;;;;;0.57;97.46;101910.38;5059973;27;101519;-28
2024/01/19 06:22:45;;;;;;;0.35;0.35;;;;;;;0.55;97.36;101909.50;5060071;27;96527;-27
2024/01/19 06:25:11;;;;;;;0.52;0.47;;;;;;;0.55;97.65;101919.25;5059962;27;96928;-28
2024/01/19 06:27:36;;;;;;;0.38;0.38;;;;;;;0.55;97.17;101928.16;5059227;27;99241;-28
2024/01/19 06:30:03;;;;;;;1.17;1.08;;;;;;;0.50;97.48;101923.69;5059730;27;98330;-27
2024/01/19 06:32:29;;;;;;;6.38;2.33;;;;;;;0.51;98.03;101930.81;5058681;27;96578;-27
2024/01/19 06:34:55;;;;;;;2.80;1.13;;;;;;;0.46;98.11;101921.97;5059988;27;96739;-29
2024/01/19 06:37:20;;;;;;;0.13;0.13;;;;;;;0.50;98.13;101926.38;5059702;27;97934;-27
2024/01/19 06:39:46;;;;;;;1.65;1.23;;;;;;;0.47;97.64;101931.72;5059407;27;97864;-29
2024/01/19 06:42:13;;;;;;;3.30;1.85;;;;;;;0.43;97.81;101928.19;5058643;27;96533;-27
2024/01/19 06:44:42;;;;;;;1.60;0.88;;;;;;;0.44;97.76;101945.06;5060100;27;96813;-27
2024/01/19 06:47:07;;;;;;;2.25;1.13;;;;;;;0.37;97.76;101933.50;5059338;27;97388;-28
2024/01/19 06:49:32;;;;;;;2.13;1.55;;;;;;;0.39;97.42;101939.72;5059192;27;99534;-28
2024/01/19 06:51:59;;;;;;;1.55;1.25;;;;;;;0.40;97.30;101953.03;5059142;27;96780;-27
2024/01/19 06:54:24;;;;;;;0.98;0.75;;;;;;;0.40;97.43;101954.81;5059166;27;96835;-28
2024/01/19 06:56:50;;;;;;;1.80;1.52;;;;;;;0.39;97.09;101953.06;5059083;27;98743;-27
2024/01/19 06:59:15;;;;;;;1.15;0.93;;;;;;;0.33;97.17;101947.72;5059645;27;97286;-27
2024/01/19 07:01:40;;;;;;;1.25;1.15;;;;;;;0.31;97.17;101953.06;5059913;27;96506;-27
2024/01/19 07:04:06;;;;;;;2.83;0.95;;;;;;;0.25;96.94;101961.06;5059600;27;96723;-27
2024/01/19 07:06:33;;;;;;;0.70;0.70;;;;;;;0.27;97.19;101972.63;5057622;27;98612;-27
2024/01/19 07:08:58;;;;;;;1.77;0.82;;;;;;;0.22;96.99;101969.06;5059164;27;99513;-27
2024/01/19 07:11:24;;;;;;;0.35;0.30;;;;;;;0.21;97.24;101977.94;5059641;27;96454;-28
2024/01/19 07:13:49;;;;;;;1.17;1.02;;;;;;;0.22;97.00;101989.50;5059290;27;96845;-28
2024/01/19 07:16:14;;;;;;;1.33;0.88;;;;;;;0.17;97.12;101992.16;5058481;27;97806;-27
2024/01/19 07:18:40;;;;;;;0.38;0.30;;;;;;;0.13;96.79;101990.38;5059059;27;97874;-27
2024/01/19 07:21:05;;;;;;;0.20;0.20;;;;;;;0.17;97.22;101992.16;5059286;27;96432;-27
2024/01/19 07:23:31;;;;;;;0.32;0.32;;;;;;;0.12;97.50;101983.25;5059308;27;96773;-28
2024/01/19 07:25:56;;;;;;;0.00;0.00;;;;;;;0.13;97.09;101985.06;5058839;27;97830;-27
2024/01/19 07:28:22;;;;;;;0.00;0.00;;;;;;;0.16;97.31;101990.38;5058984;27;97916;-27
2024/01/19 07:30:47;;;;;;;0.30;0.20;;;;;;;0.17;97.02;101997.50;5059307;27;96683;-28
2024/01/19 07:33:13;;;;;;;0.40;0.40;;;;;;;0.11;97.17;101992.16;5059566;27;96728;-27
2024/01/19 07:35:39;;;;;;;0.00;0.00;;;;;;;0.13;96.76;101995.72;5058545;27;97835;-27
2024/01/19 07:38:04;;;;;;;0.30;0.28;;;;;;;0.08;97.16;101992.16;5057983;27;98195;-27
2024/01/19 07:40:30;;;;;;;0.00;0.00;;;;;;;0.07;97.11;102007.25;5057173;27;96695;-29
2024/01/19 07:42:55;;;;;;;0.00;0.00;;;;;;;0.05;96.67;102017.03;5059126;27;96731;-27
2024/01/19 07:45:20;;;;;;;0.17;0.17;;;;;;;0.02;96.74;102014.34;5058435;27;99054;-27
2024/01/19 07:47:46;;;;;;;0.00;0.00;;;;;;;0.08;96.97;102029.44;5058476;27;97878;-27
2024/01/19 07:50:11;;;;;;;1.65;0.32;;;;;;;0.05;96.97;102021.44;5058720;27;96638;-28
2024/01/19 07:52:36;;;;;;;0.10;0.10;;;;;;;0.13;96.64;102038.34;5058240;27;96788;-27
2024/01/19 07:55:02;;;;;;;0.20;0.20;;;;;;;0.08;96.85;102029.44;5057174;27;102306;-27
2024/01/19 07:57:27;;;;;;;0.28;0.28;;;;;;;0.10;96.69;102035.69;5058842;27;97783;-27
2024/01/19 07:59:52;;;;;;;0.00;0.00;;;;;;;0.14;97.44;102041.00;5058460;27;96701;-27
2024/01/19 08:02:18;;;;;;;0.20;0.10;;;;;;;0.17;97.19;102038.34;5058717;27;96930;-27
2024/01/19 08:04:44;;;;;;;0.10;0.10;;;;;;;0.20;97.33;102034.78;5057785;27;97823;-27
2024/01/19 08:07:10;;;;;;;0.00;0.00;;;;;;;0.20;97.05;102042.78;5056404;27;101482;-27
2024/01/19 08:09:35;;;;;;;0.57;0.52;;;;;;;0.19;97.06;102040.97;5058637;27;96560;-27
2024/01/19 08:12:00;;;;;;;0.68;0.68;;;;;;;0.27;96.62;102047.22;5058711;27;96815;-27
2024/01/19 08:14:27;;;;;;;0.28;0.28;;;;;;;0.30;96.24;102052.53;5058198;27;97330;-28
2024/01/19 08:16:52;;;;;;;0.10;0.10;;;;;;;0.31;96.65;102050.75;5056541;27;100890;-27
2024/01/19 08:19:19;;;;;;;0.38;0.38;;;;;;;0.37;96.11;102050.78;5058657;27;96551;-27
2024/01/19 08:21:44;;;;;;;0.30;0.05;;;;;;;0.47;96.10;102056.97;5057154;27;96867;-28
2024/01/19 08:24:12;;;;;;;0.40;0.40;;;;;;;0.59;96.10;102071.19;5057627;27;99394;-27
2024/01/19 08:26:37;;;;;;;0.10;0.10;;;;;;;0.63;96.40;102072.09;5055949;27;100889;-27
2024/01/19 08:29:03;;;;;;;1.08;0.75;;;;;;;0.63;96.47;102062.31;5056357;27;96677;-27
2024/01/19 08:31:30;;;;;;;0.30;0.25;;;;;;;0.68;96.55;102070.28;5058321;27;96801;-27
2024/01/19 08:33:56;;;;;;;1.52;0.60;;;;;;;0.75;96.65;102081.84;5057544;27;99266;-28
2024/01/19 08:36:24;;;;;;;1.05;0.95;;;;;;;0.69;96.44;102076.50;5055914;27;99424;-27
2024/01/19 08:38:52;;;;;;;1.02;0.93;;;;;;;0.75;97.00;102077.41;5056811;27;96739;-28
2024/01/19 08:41:18;;;;;;;0.35;0.35;;;;;;;0.77;97.70;102072.97;5056784;27;97304;-27
2024/01/19 08:43:43;;;;;;;0.10;0.10;;;;;;;0.78;97.76;102066.72;5057460;27;99230;-28
2024/01/19 08:46:08;;;;;;;0.17;0.17;;;;;;;0.76;97.72;102076.53;5058047;27;97321;-28
2024/01/19 08:48:34;;;;;;;0.65;0.63;;;;;;;0.80;97.74;102066.72;5058039;27;96572;-28
2024/01/19 08:51:00;;;;;;;0.15;0.15;;;;;;;0.93;97.52;102078.25;5057508;27;97817;-28
2024/01/19 08:53:27;;;;;;;0.00;0.00;;;;;;;1.04;98.06;102088.00;5055437;27;101330;-27
2024/01/19 08:55:52;;;;;;;0.50;0.38;;;;;;;1.12;98.04;102097.78;5055183;27;100792;-27
2024/01/19 08:58:17;;;;;;;0.08;0.08;;;;;;;1.09;97.88;102088.00;5058091;27;96657;-27
2024/01/19 09:00:43;;;;;;;0.57;0.52;;;;;;;1.15;97.95;102098.69;5057791;27;96939;-27
2024/01/19 09:03:08;;;;;;;0.10;0.10;;;;;;;1.04;97.35;102089.81;5057127;27;99285;-28
2024/01/19 09:05:34;;;;;;;0.03;0.03;;;;;;;1.06;97.36;102093.34;5057122;27;97717;-28
2024/01/19 09:08:00;;;;;;;0.20;0.20;;;;;;;1.12;97.73;102109.38;5056520;27;96689;-27
2024/01/19 09:10:25;;;;;;;0.60;0.52;;;;;;;1.08;98.08;102104.91;5058143;27;96779;-27
2024/01/19 09:12:51;;;;;;;0.10;0.10;;;;;;;1.12;97.96;102105.78;5057001;27;99343;-27
2024/01/19 09:15:16;;;;;;;0.20;0.20;;;;;;;1.20;98.65;102120.91;5057108;27;97874;-29
2024/01/19 09:17:42;;;;;;;0.05;0.05;;;;;;;1.23;98.47;102115.53;5057098;27;96790;-28
2024/01/19 09:20:07;;;;;;;0.15;0.15;;;;;;;1.25;98.20;102121.78;5057366;27;96847;-28
2024/01/19 09:22:33;;;;;;;0.10;0.10;;;;;;;1.24;98.18;102114.66;5057181;27;98625;-29
2024/01/19 09:24:58;;;;;;;0.43;0.38;;;;;;;1.28;98.45;102112.88;5056952;27;101559;-27
2024/01/19 09:27:23;;;;;;;0.00;0.00;;;;;;;1.32;98.26;102119.97;5057558;27;96571;-27
2024/01/19 09:29:49;;;;;;;0.65;0.43;;;;;;;1.42;98.64;102135.06;5057560;27;96723;-27
2024/01/19 09:32:16;;;;;;;0.00;0.00;;;;;;;1.43;98.44;102138.63;5056973;27;99437;-28
2024/01/19 09:34:43;;;;;;;0.28;0.28;;;;;;;1.45;98.11;102129.75;5055588;27;100930;-27
2024/01/19 09:37:09;;;;;;;0.50;0.30;;;;;;;1.48;98.19;102129.72;5058260;27;96708;-27
2024/01/19 09:42:56;;;;;;;0.08;0.08;;;;;;;1.67;98.53;102148.34;5059572;27;96907;-27
2024/01/19 09:45:25;;;;;;;0.30;0.30;;;;;;;1.70;98.61;102143.00;5058926;27;100957;-29
2024/01/19 09:48:11;;;;;;;0.10;0.10;;;;;;;1.77;98.56;102141.19;5059239;27;96600;-27
2024/01/19 09:50:36;;;;;;;0.32;0.32;;;;;;;1.87;98.06;102142.91;5060952;27;96506;-27
2024/01/19 09:53:11;;;;;;;0.60;0.50;;;;;;;1.95;98.67;102140.19;5059861;27;99204;-27
2024/01/19 09:55:36;;;;;;;0.03;0.03;;;;;;;2.09;97.95;102152.59;5057819;27;100912;-28
2024/01/19 09:58:02;;;;;;;0.28;0.28;;;;;;;2.23;98.25;102162.31;5060530;27;96805;-27
2024/01/19 10:00:28;;;;;;;0.50;0.40;;;;;;;2.33;98.18;102166.72;5059655;27;96778;-27
2024/01/19 10:02:54;;;;;;;0.30;0.30;;;;;;;2.43;97.64;102175.56;5059828;27;99228;-27
2024/01/19 10:05:21;;;;;;;0.45;0.35;;;;;;;2.54;97.55;102171.91;5058691;27;100799;-27
2024/01/19 10:07:49;;;;;;;0.88;0.63;;;;;;;2.65;97.35;102174.53;5058677;27;96638;-27
2024/01/19 10:10:15;;;;;;;0.32;0.32;;;;;;;2.72;97.36;102178.94;5059026;27;96794;-27
2024/01/19 10:12:42;;;;;;;0.20;0.20;;;;;;;2.82;96.88;102173.53;5058405;27;101352;-28
2024/01/19 10:15:12;;;;;;;0.70;0.32;;;;;;;2.89;96.84;102173.44;5059672;27;97849;-29
2024/01/19 10:17:38;;;;;;;0.13;0.13;;;;;;;3.02;96.34;102192.06;5058875;27;97068;-27
2024/01/19 10:20:05;;;;;;;0.15;0.15;;;;;;;3.04;96.16;102182.25;5058929;27;97160;-28
2024/01/19 10:22:32;;;;;;;0.20;0.13;;;;;;;3.12;96.23;102181.28;5058402;27;100841;-28
2024/01/19 10:25:08;;;;;;;0.15;0.15;;;;;;;3.12;95.25;102172.34;5060218;27;97314;-27
2024/01/19 10:27:38;;;;;;;0.63;0.45;;;;;;;3.31;95.97;102194.47;5060146;27;96514;-28
2024/01/19 10:30:11;;;;;;;0.22;0.20;;;;;;;3.38;95.46;102193.50;5058759;27;96840;-27
2024/01/19 10:32:41;;;;;;;0.10;0.10;;;;;;;3.51;95.80;102188.94;5057736;27;100964;-27
2024/01/19 10:35:10;;;;;;;0.08;0.08;;;;;;;3.67;95.30;102182.50;5058146;27;101318;-28
2024/01/19 10:37:36;;;;;;;0.08;0.08;;;;;;;3.80;94.54;102183.25;5058641;27;96759;-27
2024/01/19 10:40:16;;;;;;;0.00;0.00;;;;;;;4.03;94.11;102201.75;5060093;27;96788;-27
2024/01/19 10:42:43;;;;;;;0.10;0.10;;;;;;;4.10;93.38;102195.38;5059345;27;99334;-27
2024/01/19 10:45:19;;;;;;;0.28;0.20;;;;;;;4.17;93.36;102189.03;5058102;27;100940;-27
2024/01/19 10:47:55;;;;;;;0.43;0.20;;;;;;;4.28;92.82;102186.19;5058133;27;96587;-27
2024/01/19 10:50:24;;;;;;;0.03;0.03;;;;;;;4.45;92.94;102188.63;5058743;27;96874;-27
2024/01/19 10:52:53;;;;;;;0.47;0.35;;;;;;;4.57;91.98;102191.13;5057622;27;100909;-29
2024/01/19 10:55:23;;;;;;;0.05;0.05;;;;;;;4.74;91.34;102203.41;5057067;27;100527;-28
2024/01/19 10:57:51;;;;;;;0.47;0.30;;;;;;;4.88;91.52;102198.72;5059294;27;96536;-30
2024/01/19 11:00:22;;;;;;;1.63;0.43;;;;;;;4.97;90.94;102195.00;5059604;27;96655;-28
2024/01/19 11:02:50;;;;;;;0.10;0.10;;;;;;;5.03;90.62;102193.09;5057673;27;100790;-27
2024/01/19 11:05:21;;;;;;;0.40;0.30;;;;;;;5.15;90.47;102201.84;5057691;27;100920;-27
2024/01/19 11:07:57;;;;;;;0.47;0.45;;;;;;;5.26;90.11;102200.75;5059536;27;96650;-27
2024/01/19 11:10:25;;;;;;;0.20;0.20;;;;;;;5.28;89.91;102192.66;5058154;27;96864;-28
2024/01/19 11:13:01;;;;;;;0.43;0.43;;;;;;;5.45;89.99;102200.41;5057669;27;98896;-28
2024/01/19 11:15:29;;;;;;;0.35;0.35;;;;;;;5.51;88.20;102203.00;5057857;27;100599;-28
2024/01/19 11:17:59;;;;;;;2.92;0.70;;;;;;;5.52;88.33;102188.63;5057847;27;96605;-29
2024/01/19 11:20:25;;;;;;;0.70;0.57;;;;;;;5.64;88.16;102193.78;5057970;27;96908;-27
2024/01/19 11:22:52;;;;;;;1.02;0.32;;;;;;;5.70;87.71;102200.84;5058168;27;97992;-27
2024/01/19 11:25:27;;;;;;;0.20;0.20;;;;;;;5.78;87.37;102196.19;5057327;27;99240;-27
2024/01/19 11:27:59;;;;;;;0.63;0.50;;;;;;;5.81;85.61;102188.06;5059441;27;96586;-28
2024/01/19 11:30:39;;;;;;;1.08;0.77;;;;;;;5.86;85.32;102194.22;5057995;27;96936;-27